Amsterdam, New York
Current Conditions -  °F | °C
As of 9:15 AM on Monday 24 Nov 2014 (Local Time) from KNY0 Reporting Station
Overcast Overcast  
Wind Chill: 52°   Ceiling: 3300
Heat Index: 52°   Visibility: 10mi
Dew Point: 51°   Wind: 3mph
Humidity: 97%   Direction: 130°SE
Pressure: 29.57"   Gusts: NA
Location:  42.94°N, 74.19°W
Report Text: KNY0 241415Z AUTO 13003KT 10SM SCT004 BKN033 OVC060 11/11 A2957 RMK AO2 P0001 T01110107
Loading
Personal Weather Stations






























Interactive Weather Map New forecast layout! Learn more

10-Day Weather Forecast

Advertisements
Track Severe Weather on mobile